createdAt,value
2023-02-05T00:00:03.457Z,2.50
2023-02-05T00:06:08.109Z,2.20
2023-02-05T00:12:10.418Z,2.23
2023-02-05T00:18:12.946Z,2.77
2023-02-05T00:24:15.386Z,2.53
2023-02-05T00:30:17.783Z,3.00
2023-02-05T00:36:21.238Z,2.57
2023-02-05T00:42:23.702Z,3.23
2023-02-05T00:48:27.961Z,2.70
2023-02-05T00:54:30.619Z,2.60
2023-02-05T01:00:34.089Z,2.37
2023-02-05T01:06:38.551Z,2.70
2023-02-05T01:12:41.041Z,2.30
2023-02-05T01:18:43.487Z,2.73
2023-02-05T01:24:48.355Z,2.17
2023-02-05T01:30:52.455Z,2.60
2023-02-05T01:36:54.891Z,2.27
2023-02-05T01:43:11.245Z,3.00
2023-02-05T01:49:43.945Z,2.90
2023-02-05T01:55:58.430Z,4.00
2023-02-05T02:02:01.895Z,2.87
2023-02-05T02:08:04.381Z,2.53
2023-02-05T02:14:10.824Z,2.70
2023-02-05T02:20:16.294Z,3.20
2023-02-05T02:26:55.906Z,2.67
2023-02-05T02:33:11.442Z,2.80
2023-02-05T02:39:46.056Z,2.90
2023-02-05T02:46:03.528Z,2.60
2023-02-05T02:52:14.062Z,3.00
2023-02-05T02:58:23.537Z,1.90
2023-02-05T03:04:40.061Z,2.67
2023-02-05T03:10:51.567Z,2.40
2023-02-05T03:16:57.036Z,2.03
2023-02-05T03:22:59.494Z,2.10
2023-02-05T03:29:05.970Z,2.63
2023-02-05T03:35:41.550Z,2.03
2023-02-05T03:42:03.086Z,2.30
2023-02-05T03:48:38.675Z,2.20
2023-02-05T03:54:59.441Z,2.23
2023-02-05T04:01:01.754Z,2.43
2023-02-05T04:07:04.197Z,2.20
2023-02-05T04:13:09.587Z,2.23
2023-02-05T04:19:12.038Z,2.73
2023-02-05T04:25:17.102Z,2.80
2023-02-05T04:31:19.995Z,2.40
2023-02-05T04:37:22.450Z,2.47
2023-02-05T04:43:26.834Z,3.20
2023-02-05T04:49:31.418Z,2.80
2023-02-05T04:55:34.222Z,3.27
2023-02-05T05:01:41.386Z,3.20
2023-02-05T05:07:43.817Z,3.43
2023-02-05T05:13:47.476Z,3.70
2023-02-05T05:19:49.749Z,3.30
2023-02-05T05:25:51.551Z,3.00
2023-02-05T05:31:55.696Z,2.70
2023-02-05T05:37:58.159Z,2.50
2023-02-05T05:44:00.596Z,2.70
2023-02-05T05:50:06.794Z,3.10
2023-02-05T05:56:12.607Z,2.20
2023-02-05T06:02:15.124Z,8.93
2023-02-05T06:08:20.503Z,2.30
2023-02-05T06:14:22.952Z,2.70
2023-02-05T06:20:27.433Z,3.20
2023-02-05T06:26:31.910Z,3.77
2023-02-05T06:32:34.337Z,3.17
2023-02-05T06:38:36.777Z,4.13
2023-02-05T06:44:39.229Z,3.60
2023-02-05T06:50:44.724Z,3.67
2023-02-05T06:57:03.192Z,4.07
2023-02-05T07:03:07.459Z,3.57
2023-02-05T07:09:10.224Z,3.30
2023-02-05T07:15:12.361Z,3.40
2023-02-05T07:21:20.148Z,4.23
2023-02-05T07:27:22.640Z,4.93
2023-02-05T07:33:26.057Z,5.77
2023-02-05T07:39:31.561Z,4.43
2023-02-05T07:45:34.307Z,3.57
2023-02-05T07:51:36.518Z,5.03
2023-02-05T07:57:38.857Z,4.60
2023-02-05T08:03:40.632Z,7.33
2023-02-05T08:09:42.820Z,3.70
2023-02-05T08:15:50.283Z,5.50
2023-02-05T08:21:52.854Z,4.90
2023-02-05T08:27:57.921Z,4.60
2023-02-05T08:34:00.712Z,5.87
2023-02-05T08:40:03.204Z,6.97
2023-02-05T08:46:07.571Z,3.67
2023-02-05T08:52:13.133Z,4.63
2023-02-05T08:58:15.593Z,4.37
2023-02-05T09:04:21.121Z,4.27
2023-02-05T09:10:23.599Z,3.70
2023-02-05T09:16:27.052Z,4.13
2023-02-05T09:22:29.499Z,4.80
2023-02-05T09:28:33.936Z,4.60
2023-02-05T09:34:36.420Z,4.43
2023-02-05T09:40:50.965Z,4.00
2023-02-05T09:47:07.466Z,3.53
2023-02-05T09:53:23.790Z,3.07
2023-02-05T09:59:28.500Z,3.30
2023-02-05T10:05:42.787Z,2.83
2023-02-05T10:12:24.580Z,2.97
2023-02-05T10:18:42.561Z,3.07
2023-02-05T10:25:32.123Z,2.73
2023-02-05T10:32:24.557Z,3.00
2023-02-05T10:38:35.545Z,3.00
2023-02-05T10:44:43.731Z,3.73
2023-02-05T10:51:24.012Z,3.30
2023-02-05T10:57:34.481Z,3.60
2023-02-05T11:04:06.606Z,3.17
2023-02-05T11:10:15.590Z,3.53
2023-02-05T11:16:18.073Z,3.40
2023-02-05T11:22:51.182Z,3.93
2023-02-05T11:28:58.106Z,3.50
2023-02-05T11:35:30.716Z,3.73
2023-02-05T11:48:47.094Z,3.67
2023-02-05T11:54:51.371Z,4.03
2023-02-05T12:00:58.820Z,3.70
2023-02-05T12:07:12.329Z,3.30
2023-02-05T12:13:38.903Z,3.60
2023-02-05T12:19:59.457Z,4.70
2023-02-05T12:26:25.416Z,4.90
2023-02-05T12:33:01.923Z,4.50
2023-02-05T12:39:43.237Z,4.77
2023-02-05T12:46:25.831Z,5.17
2023-02-05T12:52:55.384Z,4.77
2023-02-05T12:59:05.892Z,5.30
2023-02-05T13:05:33.713Z,5.37
2023-02-05T13:11:43.902Z,5.70
2023-02-05T13:18:24.600Z,5.70
2023-02-05T13:25:03.171Z,5.77
2023-02-05T13:31:11.675Z,5.43
2023-02-05T13:37:14.087Z,6.33
2023-02-05T13:43:45.667Z,5.57
2023-02-05T13:50:04.134Z,6.10
2023-02-05T13:56:43.694Z,5.73
2023-02-05T14:02:55.300Z,5.80
2023-02-05T14:09:05.795Z,5.73
2023-02-05T14:15:17.284Z,5.80
2023-02-05T14:21:32.772Z,5.97
2023-02-05T14:27:46.094Z,6.83
2023-02-05T14:33:51.810Z,6.90
2023-02-05T14:39:56.229Z,5.93
2023-02-05T14:46:06.229Z,5.93
2023-02-05T14:52:53.784Z,7.07
2023-02-05T14:59:05.877Z,6.07
2023-02-05T15:05:27.432Z,6.40
2023-02-05T15:12:05.401Z,6.37
2023-02-05T15:18:29.576Z,6.17
2023-02-05T15:24:54.227Z,6.67
2023-02-05T15:31:25.527Z,8.33
2023-02-05T15:37:35.274Z,6.27
2023-02-05T15:43:59.765Z,6.97
2023-02-05T15:50:08.800Z,7.03
2023-02-05T15:56:43.526Z,7.00
2023-02-05T16:03:00.633Z,7.17
2023-02-05T16:09:08.618Z,7.77
2023-02-05T16:15:16.327Z,7.27
2023-02-05T16:21:35.938Z,7.53
2023-02-05T16:27:47.360Z,7.80
2023-02-05T16:34:04.525Z,7.50
2023-02-05T16:40:15.384Z,7.13
2023-02-05T16:59:11.132Z,8.30
2023-02-05T17:05:27.426Z,7.93
2023-02-05T17:11:41.565Z,7.10
2023-02-05T17:17:59.511Z,8.37
2023-02-05T17:24:10.756Z,8.00
2023-02-05T17:30:22.636Z,6.90
2023-02-05T17:36:25.887Z,8.20
2023-02-05T17:42:35.374Z,7.97
2023-02-05T17:48:39.973Z,8.63
2023-02-05T17:54:47.328Z,8.23
2023-02-05T18:00:52.866Z,7.93
2023-02-05T18:06:55.341Z,8.17
2023-02-05T18:13:00.734Z,7.60
2023-02-05T18:19:03.274Z,7.83
2023-02-05T18:25:08.469Z,7.23
2023-02-05T18:31:18.611Z,8.03
2023-02-05T18:37:26.435Z,8.07
2023-02-05T18:43:29.212Z,7.40
2023-02-05T18:49:35.898Z,8.37
2023-02-05T18:55:38.198Z,8.07
2023-02-05T19:01:41.753Z,8.07
2023-02-05T19:07:49.560Z,7.77
2023-02-05T19:14:13.709Z,8.27
2023-02-05T19:20:18.240Z,8.77
2023-02-05T19:26:32.056Z,7.93
2023-02-05T19:32:35.137Z,8.80
2023-02-05T19:38:46.594Z,8.60
2023-02-05T19:44:50.111Z,9.97
2023-02-05T19:50:56.918Z,8.83
2023-02-05T19:57:00.039Z,8.40
2023-02-05T20:03:05.476Z,8.67
2023-02-05T20:09:58.031Z,8.37
2023-02-05T20:15:51.604Z,9.60
2023-02-05T20:21:57.016Z,8.10
2023-02-05T20:27:59.529Z,9.10
2023-02-05T20:34:07.990Z,8.63
2023-02-05T20:40:15.326Z,8.20
2023-02-05T20:46:29.004Z,7.50
2023-02-05T20:59:12.012Z,7.67
2023-02-05T21:05:18.838Z,7.53
2023-02-05T21:11:40.947Z,7.77
2023-02-05T21:17:48.558Z,9.23
2023-02-05T21:24:09.471Z,7.70
2023-02-05T21:30:12.540Z,8.43
2023-02-05T21:36:44.329Z,7.67
2023-02-05T21:42:47.540Z,6.87
2023-02-05T21:49:02.099Z,7.43
2023-02-05T21:55:08.551Z,7.43
2023-02-05T22:01:18.104Z,7.33
2023-02-05T22:07:20.516Z,7.27
2023-02-05T22:13:55.525Z,7.90
2023-02-05T22:20:01.678Z,8.83
2023-02-05T22:26:11.106Z,7.83
2023-02-05T22:32:23.902Z,8.50
2023-02-05T22:38:41.844Z,8.00
2023-02-05T22:45:02.998Z,8.27
2023-02-05T22:51:17.615Z,8.03
2023-02-05T22:57:23.497Z,7.50
2023-02-05T23:03:40.458Z,7.50
2023-02-05T23:09:44.852Z,7.57
2023-02-05T23:16:01.544Z,7.73
2023-02-05T23:22:10.553Z,8.00
2023-02-05T23:28:28.474Z,9.07
2023-02-05T23:34:41.300Z,8.40
2023-02-05T23:40:48.053Z,8.63
2023-02-05T23:46:51.515Z,9.33
2023-02-05T23:53:19.574Z,9.17
2023-02-05T23:59:24.953Z,8.13
